Time;durP1;ratioP1;P1;durP2;ratioP2;P2;SDS_P1;SDS_P2;PMS_P1;PMS_P2;Temp;Humidity;BMP_temperature;BMP_pressure;BME280_temperature;BME280_humidity;BME280_pressure;Samples;Min_cycle;Max_cycle;Signal;HPM_P1;HPM_P2
2022/02/23 00:00:46;;;;;;;;;;;;;;;5.35;92.23;97039.06;5008799;28;20420;-76
2022/02/23 00:03:12;;;;;;;;;;;;;;;5.35;93.28;97041.66;5009582;28;19963;-76
2022/02/23 00:05:38;;;;;;;;;;;;;;;5.35;92.43;97037.25;5004481;28;19970;-76
2022/02/23 00:08:04;;;;;;;;;;;;;;;5.34;91.72;97033.06;5001999;28;19996;-75
2022/02/23 00:10:30;;;;;;;;;;;;;;;5.35;92.97;97034.66;5007675;28;19959;-76
2022/02/23 00:12:56;;;;;;;;;;;;;;;5.36;92.82;97041.50;5007531;28;20375;-76
2022/02/23 00:15:22;;;;;;;;;;;;;;;5.36;93.96;97036.31;5005680;28;19968;-76
2022/02/23 00:17:48;;;;;;;;;;;;;;;5.37;93.01;97034.50;5002397;28;19961;-76
2022/02/23 00:20:14;;;;;;;;;;;;;;;5.38;92.43;97036.94;5003997;28;19959;-76
2022/02/23 00:22:40;;;;;;;;;;;;;;;5.41;93.37;97044.38;4996757;28;19960;-76
2022/02/23 00:25:07;;;;;;;;;;;;;;;5.42;92.83;97046.03;5002728;28;19971;-76
2022/02/23 00:27:34;;;;;;;;;;;;;;;5.44;93.95;97051.06;5003426;28;19947;-76
2022/02/23 00:30:00;;;;;;;;;;;;;;;5.44;93.29;97040.66;5004947;28;19943;-76
2022/02/23 00:32:26;;;;;;;;;;;;;;;5.46;93.71;97042.09;4987012;28;19959;-76
2022/02/23 00:34:52;;;;;;;;;;;;;;;5.48;93.09;97049.72;5009087;28;19983;-78
2022/02/23 00:37:17;;;;;;;;;;;;;;;5.48;93.60;97045.34;4999127;28;20409;-76
2022/02/23 00:39:43;;;;;;;;;;;;;;;5.51;93.81;97051.19;5004972;28;19950;-76
2022/02/23 00:42:09;;;;;;;;;;;;;;;5.52;95.29;97055.41;5008198;28;19954;-76
2022/02/23 00:44:35;;;;;;;;;;;;;;;5.49;94.70;97052.16;5007173;28;19982;-76
2022/02/23 00:47:02;;;;;;;;;;;;;;;5.50;94.54;97055.56;5002925;28;19967;-76
2022/02/23 00:49:28;;;;;;;;;;;;;;;5.51;94.29;97057.19;5005033;28;19976;-76
2022/02/23 00:51:54;;;;;;;;;;;;;;;5.52;94.53;97051.00;5002403;28;20346;-76
2022/02/23 00:54:20;;;;;;;;;;;;;;;5.53;94.54;97054.44;5001195;28;19966;-76
2022/02/23 00:56:47;;;;;;;;;;;;;;;5.53;95.39;97059.63;4985796;28;19958;-76
2022/02/23 00:59:13;;;;;;;;;;;;;;;5.52;94.98;97051.00;5002716;28;19964;-76
2022/02/23 01:01:39;;;;;;;;;;;;;;;5.54;96.11;97056.03;5003296;28;19955;-76
2022/02/23 01:04:05;;;;;;;;;;;;;;;5.55;96.76;97053.28;5009084;28;19966;-76
2022/02/23 01:06:31;;;;;;;;;;;;;;;5.54;95.51;97050.84;5008027;28;19966;-76
2022/02/23 01:08:57;;;;;;;;;;;;;;;5.56;96.42;97048.88;4988540;28;20437;-76
2022/02/23 01:11:23;;;;;;;;;;;;;;;5.57;94.60;97056.53;5002755;28;19953;-76
2022/02/23 01:13:50;;;;;;;;;;;;;;;5.58;94.61;97052.13;4999175;28;19960;-76
2022/02/23 01:16:16;;;;;;;;;;;;;;;5.60;95.13;97056.16;5005134;28;19968;-77
2022/02/23 01:18:43;;;;;;;;;;;;;;;5.61;95.68;97060.41;5009717;28;19956;-76
2022/02/23 01:21:09;;;;;;;;;;;;;;;5.61;95.22;97059.59;5008287;28;19954;-76
2022/02/23 01:23:34;;;;;;;;;;;;;;;5.61;95.00;97060.41;5002946;28;20337;-76
2022/02/23 01:26:00;;;;;;;;;;;;;;;5.63;95.29;97055.03;4984681;28;20059;-77
2022/02/23 01:28:26;;;;;;;;;;;;;;;5.64;95.31;97064.44;4997362;28;19956;-76
2022/02/23 01:30:52;;;;;;;;;;;;;;;5.64;96.29;97070.44;4987149;28;20460;-76
2022/02/23 01:33:36;;;;;;;;;;;;;;;5.64;97.23;97067.84;4998878;28;19954;-76
2022/02/23 01:36:03;;;;;;;;;;;;;;;5.64;96.03;97069.66;5001837;28;19975;-77
2022/02/23 01:38:29;;;;;;;;;;;;;;;5.64;94.90;97074.84;5013239;28;19972;-76
2022/02/23 01:40:55;;;;;;;;;;;;;;;5.66;95.18;97083.31;5004741;28;20374;-77
2022/02/23 01:43:21;;;;;;;;;;;;;;;5.66;94.90;97080.69;5012886;28;19983;-77
2022/02/23 01:45:47;;;;;;;;;;;;;;;5.66;95.02;97084.09;5008275;28;20451;-76
2022/02/23 01:48:13;;;;;;;;;;;;;;;5.68;95.41;97083.94;5010570;28;19956;-76
2022/02/23 01:50:41;;;;;;;;;;;;;;;5.68;95.96;97084.75;4990376;28;20394;-76
2022/02/23 01:53:07;;;;;;;;;;;;;;;5.68;95.80;97082.13;5008310;28;19960;-76
2022/02/23 01:55:35;;;;;;;;;;;;;;;5.68;95.78;97087.34;5006273;28;19955;-76
2022/02/23 01:58:02;;;;;;;;;;;;;;;5.70;96.83;97089.78;4999909;28;20389;-77
2022/02/23 02:00:28;;;;;;;;;;;;;;;5.70;96.81;97093.19;5004533;28;19955;-76
2022/02/23 02:02:54;;;;;;;;;;;;;;;5.70;97.43;97095.00;5012216;28;20358;-76
2022/02/23 02:05:20;;;;;;;;;;;;;;;5.69;96.61;97094.19;5006620;28;20032;-76
2022/02/23 02:07:46;;;;;;;;;;;;;;;5.69;96.74;97094.19;5004822;28;20322;-77
2022/02/23 02:10:12;;;;;;;;;;;;;;;5.70;96.77;97100.19;5006457;28;20044;-77
2022/02/23 02:12:38;;;;;;;;;;;;;;;5.71;96.99;97101.81;5010370;28;19961;-76
2022/02/23 02:15:05;;;;;;;;;;;;;;;5.69;97.98;97095.97;5011487;28;19960;-76
2022/02/23 02:17:31;;;;;;;;;;;;;;;5.70;96.45;97108.00;4993815;28;19962;-76
2022/02/23 02:19:57;;;;;;;;;;;;;;;5.70;97.08;97113.22;5010887;28;19957;-77
2022/02/23 02:22:27;;;;;;;;;;;;;;;5.70;96.21;97116.63;5010033;28;19954;-76
2022/02/23 02:24:54;;;;;;;;;;;;;;;5.72;96.69;97120.84;5005516;28;19948;-76
2022/02/23 02:27:20;;;;;;;;;;;;;;;5.71;96.25;97127.81;5005477;28;19976;-76
2022/02/23 02:29:46;;;;;;;;;;;;;;;5.71;95.57;97135.63;5007648;28;19944;-76
2022/02/23 02:32:14;;;;;;;;;;;;;;;5.72;95.69;97129.47;5003837;28;20019;-76
2022/02/23 02:34:40;;;;;;;;;;;;;;;5.72;95.15;97141.66;5007040;28;19962;-77
2022/02/23 02:37:07;;;;;;;;;;;;;;;5.72;96.00;97159.88;5008360;28;19957;-75
2022/02/23 02:39:36;;;;;;;;;;;;;;;5.69;97.63;97181.84;5007327;28;19958;-76
2022/02/23 02:42:02;;;;;;;;;;;;;;;5.55;90.31;97198.16;4991478;28;19955;-76
2022/02/23 02:44:28;;;;;;;;;;;;;;;5.32;88.96;97198.88;5005857;28;19991;-76
2022/02/23 02:46:54;;;;;;;;;;;;;;;5.09;89.01;97204.75;5012231;28;20341;-76
2022/02/23 02:49:20;;;;;;;;;;;;;;;4.84;88.39;97211.75;5002379;28;19953;-77
2022/02/23 02:51:47;;;;;;;;;;;;;;;4.63;89.03;97227.81;5007438;28;19960;-78
2022/02/23 02:54:13;;;;;;;;;;;;;;;4.49;89.68;97223.25;4997056;28;19953;-77
2022/02/23 02:56:40;;;;;;;;;;;;;;;4.33;90.90;97239.63;5008714;28;20425;-77
2022/02/23 02:59:06;;;;;;;;;;;;;;;4.14;90.61;97230.31;4988263;28;20438;-77
2022/02/23 03:01:33;;;;;;;;;;;;;;;4.02;91.22;97236.75;4999659;28;20320;-77
2022/02/23 03:03:59;;;;;;;;;;;;;;;3.92;91.48;97244.66;5009376;28;19957;-77
2022/02/23 03:06:25;;;;;;;;;;;;;;;3.86;91.92;97240.94;5007707;28;20396;-77
2022/02/23 03:08:52;;;;;;;;;;;;;;;3.85;91.97;97248.88;5006086;28;19950;-77
2022/02/23 03:11:18;;;;;;;;;;;;;;;3.82;91.57;97243.97;5005904;28;19955;-77
2022/02/23 03:13:44;;;;;;;;;;;;;;;3.81;91.55;97237.97;4998088;28;20336;-77
2022/02/23 03:16:11;;;;;;;;;;;;;;;3.80;91.87;97245.91;4989167;28;19970;-77
2022/02/23 03:18:37;;;;;;;;;;;;;;;3.82;92.21;97257.78;4990002;28;19958;-79
2022/02/23 03:21:04;;;;;;;;;;;;;;;3.84;92.46;97260.19;5000227;28;20431;-77
2022/02/23 03:23:30;;;;;;;;;;;;;;;3.85;92.43;97261.84;5007214;28;19961;-77
2022/02/23 03:25:56;;;;;;;;;;;;;;;3.88;92.13;97263.31;4990090;28;20461;-77
2022/02/23 03:28:22;;;;;;;;;;;;;;;3.89;91.78;97270.13;5004870;28;19957;-77
2022/02/23 03:30:48;;;;;;;;;;;;;;;3.91;92.20;97263.81;5009785;28;20416;-78
2022/02/23 03:33:14;;;;;;;;;;;;;;;3.94;92.87;97271.28;5004767;28;20414;-77
2022/02/23 03:35:41;;;;;;;;;;;;;;;4.00;92.20;97273.25;5007439;28;19958;-77
2022/02/23 03:38:08;;;;;;;;;;;;;;;4.09;92.14;97273.28;4998678;28;19961;-78
2022/02/23 03:40:34;;;;;;;;;;;;;;;4.15;92.11;97281.25;4989511;28;19947;-79
2022/02/23 03:43:00;;;;;;;;;;;;;;;4.21;91.52;97288.41;5013065;28;20000;-77
2022/02/23 03:45:26;;;;;;;;;;;;;;;4.27;91.35;97293.00;4985242;28;19969;-78
2022/02/23 03:47:52;;;;;;;;;;;;;;;4.32;91.26;97295.09;5007708;28;19947;-78
2022/02/23 03:50:18;;;;;;;;;;;;;;;4.36;91.36;97293.03;5004183;28;19999;-78
2022/02/23 03:52:44;;;;;;;;;;;;;;;4.39;91.03;97292.69;5007626;28;20064;-77
2022/02/23 03:55:10;;;;;;;;;;;;;;;4.43;91.06;97299.19;5005489;28;20012;-77
2022/02/23 03:57:36;;;;;;;;;;;;;;;4.44;90.96;97313.81;5003692;28;19957;-77
2022/02/23 04:00:07;;;;;;;;;;;;;;;4.46;90.63;97311.88;4988603;28;20443;-77
2022/02/23 04:02:33;;;;;;;;;;;;;;;4.48;90.53;97313.34;5007558;28;19948;-78
2022/02/23 04:04:59;;;;;;;;;;;;;;;4.50;90.58;97317.59;5005505;28;20392;-78
2022/02/23 04:07:25;;;;;;;;;;;;;;;4.49;90.40;97321.94;5003273;28;20027;-77
2022/02/23 04:09:50;;;;;;;;;;;;;;;4.50;90.28;97327.97;4983533;28;19957;-78
2022/02/23 04:12:17;;;;;;;;;;;;;;;4.48;90.02;97330.72;5009583;28;19952;-77
2022/02/23 04:14:43;;;;;;;;;;;;;;;4.46;89.76;97324.88;4991770;28;20432;-77
2022/02/23 04:17:09;;;;;;;;;;;;;;;4.46;89.52;97335.25;5000073;28;19968;-77
2022/02/23 04:19:35;;;;;;;;;;;;;;;4.45;89.62;97346.59;5004219;28;19976;-77
2022/02/23 04:22:02;;;;;;;;;;;;;;;4.42;89.79;97349.53;4991151;28;19952;-78
2022/02/23 04:24:28;;;;;;;;;;;;;;;4.43;89.79;97348.53;5001807;28;19952;-77
2022/02/23 04:26:53;;;;;;;;;;;;;;;4.42;89.74;97349.53;5003851;28;20013;-77
2022/02/23 04:29:19;;;;;;;;;;;;;;;4.43;89.68;97353.75;5001383;28;19946;-77
2022/02/23 04:31:45;;;;;;;;;;;;;;;4.43;89.82;97364.13;5001532;28;20044;-77
2022/02/23 04:34:12;;;;;;;;;;;;;;;4.41;89.79;97364.31;5009908;28;19981;-77
2022/02/23 04:36:38;;;;;;;;;;;;;;;4.40;89.90;97362.66;5006683;28;19953;-77
2022/02/23 04:39:04;;;;;;;;;;;;;;;4.41;89.82;97366.91;5000250;28;19998;-78
2022/02/23 04:41:30;;;;;;;;;;;;;;;4.38;89.57;97367.19;5008994;28;20320;-76
2022/02/23 04:43:56;;;;;;;;;;;;;;;4.38;89.49;97369.00;4995576;28;19987;-77
2022/02/23 04:46:22;;;;;;;;;;;;;;;4.36;89.47;97381.31;5007396;28;19979;-77
2022/02/23 04:48:50;;;;;;;;;;;;;;;4.36;89.31;97384.72;5005309;28;20003;-77
2022/02/23 04:51:16;;;;;;;;;;;;;;;4.34;89.29;97386.66;4999462;28;19962;-77
2022/02/23 04:53:42;;;;;;;;;;;;;;;4.35;89.30;97390.09;5008242;28;19955;-77
2022/02/23 04:56:09;;;;;;;;;;;;;;;4.33;89.35;97390.25;4988722;28;19961;-77
2022/02/23 04:58:35;;;;;;;;;;;;;;;4.32;89.55;97395.56;5001798;28;19948;-77
2022/02/23 05:01:01;;;;;;;;;;;;;;;4.32;89.71;97398.16;5002353;28;20009;-77
2022/02/23 05:03:26;;;;;;;;;;;;;;;4.31;89.69;97396.56;5006662;28;19962;-77
2022/02/23 05:05:52;;;;;;;;;;;;;;;4.30;89.41;97400.09;5003714;28;20087;-79
2022/02/23 05:08:19;;;;;;;;;;;;;;;4.27;89.28;97402.03;4981123;28;19947;-78
2022/02/23 05:10:45;;;;;;;;;;;;;;;4.24;89.17;97386.78;5005427;28;19955;-77
2022/02/23 05:13:11;;;;;;;;;;;;;;;4.23;89.05;97395.53;5006555;28;19963;-76
2022/02/23 05:15:37;;;;;;;;;;;;;;;4.20;88.95;97387.22;5001284;28;19970;-76
2022/02/23 05:18:07;;;;;;;;;;;;;;;4.17;88.59;97382.34;4999869;28;19953;-77
2022/02/23 05:20:34;;;;;;;;;;;;;;;4.13;88.05;97391.41;4988655;28;20019;-77
2022/02/23 05:23:00;;;;;;;;;;;;;;;4.10;87.85;97402.94;5009755;28;20334;-77
2022/02/23 05:25:26;;;;;;;;;;;;;;;4.05;87.76;97411.19;5002306;28;19950;-76
2022/02/23 05:27:52;;;;;;;;;;;;;;;4.02;87.80;97415.84;5004747;28;19969;-76
2022/02/23 05:30:18;;;;;;;;;;;;;;;3.99;87.68;97419.56;5003388;28;19961;-77
2022/02/23 05:32:44;;;;;;;;;;;;;;;3.94;87.42;97416.59;4999802;28;19965;-77
2022/02/23 05:35:10;;;;;;;;;;;;;;;3.90;87.45;97410.09;4988254;28;20321;-76
2022/02/23 05:37:36;;;;;;;;;;;;;;;3.87;87.74;97410.41;5004155;28;19961;-77
2022/02/23 05:40:03;;;;;;;;;;;;;;;3.82;87.41;97404.84;4994527;28;19952;-77
2022/02/23 05:42:29;;;;;;;;;;;;;;;3.78;87.65;97422.50;5005594;28;19952;-77
2022/02/23 05:44:55;;;;;;;;;;;;;;;3.75;87.17;97425.38;5002820;28;20012;-77
2022/02/23 05:47:21;;;;;;;;;;;;;;;3.67;86.86;97420.13;5007859;28;19972;-76
2022/02/23 05:49:47;;;;;;;;;;;;;;;3.62;86.67;97424.97;5003193;28;19953;-77
2022/02/23 05:52:13;;;;;;;;;;;;;;;3.59;86.63;97422.66;4985549;28;19953;-77
2022/02/23 05:54:40;;;;;;;;;;;;;;;3.55;86.83;97426.50;5003919;28;19952;-76
2022/02/23 05:57:05;;;;;;;;;;;;;;;3.51;87.23;97435.56;5003949;28;20450;-77
2022/02/23 05:59:31;;;;;;;;;;;;;;;3.48;86.97;97447.03;4990078;28;19961;-77
2022/02/23 06:01:57;;;;;;;;;;;;;;;3.43;86.61;97454.47;5003697;28;20043;-77
2022/02/23 06:04:23;;;;;;;;;;;;;;;3.37;86.41;97450.69;5003943;28;19956;-77
2022/02/23 06:06:49;;;;;;;;;;;;;;;3.33;86.42;97451.13;5002409;28;20021;-76
2022/02/23 06:09:15;;;;;;;;;;;;;;;3.31;86.42;97458.22;4999464;28;19954;-78
2022/02/23 06:11:43;;;;;;;;;;;;;;;3.28;86.94;97456.75;4990289;28;19970;-76
2022/02/23 06:14:10;;;;;;;;;;;;;;;3.26;86.81;97469.03;4986439;28;19958;-78
2022/02/23 06:16:36;;;;;;;;;;;;;;;3.23;86.76;97462.38;4980956;28;20332;-76
2022/02/23 06:19:02;;;;;;;;;;;;;;;3.21;86.50;97472.09;5000282;28;20300;-79
2022/02/23 06:21:28;;;;;;;;;;;;;;;3.19;86.84;97470.56;5002343;28;19958;-76
2022/02/23 06:23:54;;;;;;;;;;;;;;;3.16;86.64;97470.88;5008459;28;19950;-78
2022/02/23 06:26:21;;;;;;;;;;;;;;;3.13;86.27;97468.56;4972981;28;19972;-76
2022/02/23 06:28:47;;;;;;;;;;;;;;;3.09;85.95;97478.44;5003537;28;20416;-76
2022/02/23 06:31:13;;;;;;;;;;;;;;;3.05;85.59;97482.25;5003411;28;19950;-76
2022/02/23 06:33:39;;;;;;;;;;;;;;;3.01;85.44;97480.91;4982607;28;19964;-75
2022/02/23 06:36:05;;;;;;;;;;;;;;;2.98;85.28;97492.41;5006052;28;19952;-76
2022/02/23 06:38:31;;;;;;;;;;;;;;;2.98;85.46;97491.56;5005930;28;20049;-75
2022/02/23 06:40:57;;;;;;;;;;;;;;;2.98;85.57;97496.75;5011063;28;19962;-76
2022/02/23 06:43:23;;;;;;;;;;;;;;;2.98;85.70;97492.41;5007002;28;19987;-75
2022/02/23 06:45:50;;;;;;;;;;;;;;;3.01;85.70;97499.06;5002268;28;20328;-76
2022/02/23 06:48:21;;;;;;;;;;;;;;;3.19;86.05;97510.28;5005126;28;19975;-76
2022/02/23 06:50:48;;;;;;;;;;;;;;;3.70;85.14;97507.25;5012928;28;20403;-76
2022/02/23 06:53:14;;;;;;;;;;;;;;;4.28;84.11;97509.31;5003168;28;19963;-77
2022/02/23 06:55:41;;;;;;;;;;;;;;;4.87;82.50;97514.69;5004050;28;19956;-76
2022/02/23 06:58:07;;;;;;;;;;;;;;;5.42;80.70;97509.06;5010063;28;19956;-77
2022/02/23 07:00:32;;;;;;;;;;;;;;;5.93;79.60;97508.16;5009886;28;20014;-77
2022/02/23 07:02:58;;;;;;;;;;;;;;;6.42;78.33;97500.34;5000950;28;19961;-76
2022/02/23 07:05:24;;;;;;;;;;;;;;;6.83;76.87;97495.06;5009502;28;19961;-77
2022/02/23 07:07:50;;;;;;;;;;;;;;;7.25;76.00;97496.50;5006216;28;19971;-77
2022/02/23 07:10:24;;;;;;;;;;;;;;;7.62;75.17;97495.81;5000254;28;19967;-77
2022/02/23 07:12:50;;;;;;;;;;;;;;;7.99;74.74;97493.44;5004823;28;19968;-76
2022/02/23 07:15:17;;;;;;;;;;;;;;;8.30;73.34;97488.91;5011453;28;19957;-77
2022/02/23 07:17:43;;;;;;;;;;;;;;;8.60;72.24;97483.75;4991584;28;19989;-77
2022/02/23 07:20:09;;;;;;;;;;;;;;;8.87;71.65;97481.50;4983572;28;19999;-77
2022/02/23 07:22:36;;;;;;;;;;;;;;;9.13;71.01;97481.84;5002738;28;19958;-78
2022/02/23 07:25:03;;;;;;;;;;;;;;;9.35;70.29;97474.84;5005307;28;19946;-77
2022/02/23 07:27:29;;;;;;;;;;;;;;;9.57;69.83;97474.88;5007748;28;19976;-77
2022/02/23 07:29:54;;;;;;;;;;;;;;;9.79;69.76;97480.94;5006664;28;19951;-80
2022/02/23 07:32:26;;;;;;;;;;;;;;;9.93;69.50;97480.06;5005547;28;19999;-77
2022/02/23 07:34:52;;;;;;;;;;;;;;;10.15;68.93;97478.22;4999304;28;19962;-78
2022/02/23 07:37:18;;;;;;;;;;;;;;;10.31;68.62;97479.81;5004491;28;20440;-76
2022/02/23 07:39:45;;;;;;;;;;;;;;;10.46;68.13;97477.09;5011404;28;19988;-77
2022/02/23 07:42:11;;;;;;;;;;;;;;;10.59;66.87;97465.06;5003524;28;19953;-77
2022/02/23 07:44:37;;;;;;;;;;;;;;;10.61;66.57;97470.94;5006049;28;19984;-77
2022/02/23 07:47:03;;;;;;;;;;;;;;;10.63;66.89;97474.16;5005367;28;19979;-77
2022/02/23 07:49:29;;;;;;;;;;;;;;;10.62;67.15;97489.06;5011212;28;20484;-78
2022/02/23 07:51:55;;;;;;;;;;;;;;;10.72;66.84;97486.91;5006026;28;19964;-77
2022/02/23 07:54:21;;;;;;;;;;;;;;;10.86;67.05;97490.44;5000315;28;19958;-77
2022/02/23 07:56:46;;;;;;;;;;;;;;;10.72;67.05;97491.34;5002148;28;19999;-77
2022/02/23 07:59:12;;;;;;;;;;;;;;;10.66;66.33;97485.06;5005092;28;20064;-77
2022/02/23 08:01:38;;;;;;;;;;;;;;;10.71;66.20;97487.13;5005739;28;20007;-77
2022/02/23 08:04:05;;;;;;;;;;;;;;;10.49;66.65;97491.63;5003444;28;19963;-77
2022/02/23 08:06:32;;;;;;;;;;;;;;;10.12;64.58;97464.69;5008898;28;20438;-77
2022/02/23 08:08:58;;;;;;;;;;;;;;;9.62;67.67;97514.41;5007238;28;20360;-77
2022/02/23 08:11:25;;;;;;;;;;;;;;;9.32;68.96;97526.75;4998850;28;20428;-76
2022/02/23 08:13:58;;;;;;;;;;;;;;;9.32;69.64;97534.59;5009330;28;19959;-76
2022/02/23 08:21:56;;;;;;;;;;;;;;;10.18;66.52;97490.13;4995154;28;19986;-76
2022/02/23 08:24:22;;;;;;;;;;;;;;;10.39;67.82;97501.63;5002281;28;20323;-77
2022/02/23 08:26:48;;;;;;;;;;;;;;;10.51;65.79;97471.25;5007763;28;19977;-76
2022/02/23 08:29:14;;;;;;;;;;;;;;;10.65;66.67;97493.94;4995123;28;19956;-77
2022/02/23 08:31:40;;;;;;;;;;;;;;;10.82;66.64;97491.03;5006334;28;20330;-76
2022/02/23 08:34:06;;;;;;;;;;;;;;;10.79;63.87;97467.78;5001999;28;19976;-77
2022/02/23 08:36:32;;;;;;;;;;;;;;;10.41;64.96;97491.75;5004165;28;19962;-76
2022/02/23 08:38:58;;;;;;;;;;;;;;;10.13;66.35;97503.00;5003674;28;19969;-77
2022/02/23 08:41:24;;;;;;;;;;;;;;;10.04;65.40;97497.09;5002395;28;20319;-78
2022/02/23 08:43:50;;;;;;;;;;;;;;;10.08;67.09;97516.69;5007956;28;19981;-77
2022/02/23 08:46:16;;;;;;;;;;;;;;;10.10;68.16;97522.56;5005067;28;20021;-77
2022/02/23 08:48:42;;;;;;;;;;;;;;;10.15;67.44;97516.75;5006366;28;20429;-76
2022/02/23 08:51:08;;;;;;;;;;;;;;;10.45;66.67;97503.50;5002924;28;19957;-76
2022/02/23 08:53:34;;;;;;;;;;;;;;;10.64;67.35;97504.63;5003808;28;20038;-76
2022/02/23 08:56:00;;;;;;;;;;;;;;;10.72;65.68;97481.66;5009693;28;19959;-76
2022/02/23 08:58:26;;;;;;;;;;;;;;;10.68;64.66;97469.94;5006951;28;19963;-76
2022/02/23 09:00:52;;;;;;;;;;;;;;;10.77;65.40;97475.84;4997585;28;19956;-76
2022/02/23 09:03:22;;;;;;;;;;;;;;;10.82;64.91;97476.09;5001279;28;20019;-76
2022/02/23 09:05:48;;;;;;;;;;;;;;;10.69;64.41;97474.19;4985678;28;19967;-76
2022/02/23 09:08:14;;;;;;;;;;;;;;;10.54;64.59;97473.47;5002219;28;20437;-76
2022/02/23 09:10:40;;;;;;;;;;;;;;;10.56;64.90;97489.84;5002967;28;19954;-76
2022/02/23 09:13:07;;;;;;;;;;;;;;;10.39;64.02;97470.97;5005412;28;19956;-76
2022/02/23 09:15:34;;;;;;;;;;;;;;;10.43;65.55;97497.63;5003348;28;19971;-76
2022/02/23 09:18:03;;;;;;;;;;;;;;;10.38;65.00;97487.72;5003153;28;19947;-76
2022/02/23 09:20:31;;;;;;;;;;;;;;;10.28;65.69;97498.50;4984390;28;19964;-76
2022/02/23 09:22:57;;;;;;;;;;;;;;;10.34;67.13;97503.00;5002565;28;20339;-76
2022/02/23 09:25:23;;;;;;;;;;;;;;;10.52;67.06;97499.94;5005246;28;19961;-76
2022/02/23 09:27:49;;;;;;;;;;;;;;;10.51;66.32;97490.41;5004797;28;20361;-76
2022/02/23 09:30:15;;;;;;;;;;;;;;;10.45;63.55;97461.53;5007607;28;19958;-76
2022/02/23 09:32:41;;;;;;;;;;;;;;;10.41;65.48;97476.81;5005240;28;20315;-76
2022/02/23 09:35:08;;;;;;;;;;;;;;;10.29;65.91;97478.31;5001383;28;19967;-76
2022/02/23 09:37:34;;;;;;;;;;;;;;;10.09;66.53;97499.94;5006453;28;19954;-76
2022/02/23 09:40:00;;;;;;;;;;;;;;;10.08;68.73;97519.31;5010787;28;19947;-76
2022/02/23 09:42:28;;;;;;;;;;;;;;;10.07;67.17;97501.13;5003097;28;19957;-77
2022/02/23 09:44:59;;;;;;;;;;;;;;;10.01;67.27;97504.50;5001809;28;20347;-76
2022/02/23 09:47:26;;;;;;;;;;;;;;;9.99;65.69;97477.69;5001253;28;20024;-76
2022/02/23 09:49:52;;;;;;;;;;;;;;;9.85;65.34;97482.81;4994587;28;19965;-76
2022/02/23 09:52:23;;;;;;;;;;;;;;;9.70;66.34;97492.53;4989618;28;19960;-76
2022/02/23 09:54:49;;;;;;;;;;;;;;;9.70;69.19;97530.03;5002544;28;20505;-76
2022/02/23 09:57:15;;;;;;;;;;;;;;;9.81;66.74;97492.03;5004115;28;19953;-76
2022/02/23 09:59:41;;;;;;;;;;;;;;;9.84;64.99;97473.31;5004987;28;19956;-76
2022/02/23 10:02:09;;;;;;;;;;;;;;;9.88;65.69;97471.94;4992776;28;20528;-76
2022/02/23 10:04:35;;;;;;;;;;;;;;;9.98;63.84;97458.53;5014225;28;19958;-76
2022/02/23 10:07:02;;;;;;;;;;;;;;;9.91;65.25;97474.19;5004240;28;19972;-76
2022/02/23 10:09:28;;;;;;;;;;;;;;;9.82;62.32;97437.84;5006717;28;19953;-76
2022/02/23 10:11:54;;;;;;;;;;;;;;;9.69;63.91;97455.03;5014729;28;19988;-76
2022/02/23 10:14:20;;;;;;;;;;;;;;;9.72;63.37;97448.63;4997822;28;19965;-77
2022/02/23 10:16:47;;;;;;;;;;;;;;;9.83;64.91;97469.09;5009227;28;20399;-77
2022/02/23 10:19:18;;;;;;;;;;;;;;;9.95;66.69;97490.34;4985594;28;20447;-76
2022/02/23 10:21:44;;;;;;;;;;;;;;;10.00;64.78;97464.41;4995151;28;19952;-77
2022/02/23 10:24:20;;;;;;;;;;;;;;;10.05;63.76;97454.16;5001262;28;19956;-76
2022/02/23 10:26:53;;;;;;;;;;;;;;;10.19;60.90;97417.56;5004888;28;19951;-76
2022/02/23 10:29:25;;;;;;;;;;;;;;;10.19;62.42;97422.81;5008045;28;19964;-77
2022/02/23 10:31:51;;;;;;;;;;;;;;;10.27;64.04;97452.31;5011601;28;19959;-77
2022/02/23 10:34:18;;;;;;;;;;;;;;;10.33;64.45;97451.59;5009520;28;19967;-76
2022/02/23 10:36:56;;;;;;;;;;;;;;;10.36;61.62;97417.09;5009790;28;19962;-76
2022/02/23 10:39:22;;;;;;;;;;;;;;;10.31;65.50;97466.69;5002183;28;19962;-77
2022/02/23 10:41:48;;;;;;;;;;;;;;;10.16;63.50;97444.94;5004588;28;19959;-77
2022/02/23 10:44:24;;;;;;;;;;;;;;;10.05;62.57;97435.00;4986962;28;19982;-77
2022/02/23 10:46:50;;;;;;;;;;;;;;;10.21;65.86;97468.81;5003678;28;19966;-77
2022/02/23 10:49:16;;;;;;;;;;;;;;;10.09;62.08;97418.69;5012843;28;19994;-76
2022/02/23 10:51:45;;;;;;;;;;;;;;;10.13;61.56;97414.69;5007355;28;20431;-79
2022/02/23 10:54:12;;;;;;;;;;;;;;;10.19;65.63;97467.38;5003505;28;19957;-77
2022/02/23 10:56:39;;;;;;;;;;;;;;;10.25;63.42;97443.03;5004770;28;20428;-78
2022/02/23 10:59:06;;;;;;;;;;;;;;;10.32;62.79;97438.66;4987866;28;19969;-76
2022/02/23 11:01:33;;;;;;;;;;;;;;;10.42;63.17;97438.31;5005527;28;20358;-78
2022/02/23 11:03:59;;;;;;;;;;;;;;;10.46;61.44;97422.00;4990059;28;19955;-76
2022/02/23 11:06:26;;;;;;;;;;;;;;;10.61;62.89;97437.63;4989942;28;19962;-78
2022/02/23 11:08:52;;;;;;;;;;;;;;;10.79;60.11;97397.75;5000953;28;19978;-77
2022/02/23 11:11:19;;;;;;;;;;;;;;;10.85;62.29;97425.03;4988687;28;20315;-77
2022/02/23 11:13:45;;;;;;;;;;;;;;;10.70;57.57;97367.44;5006024;28;19956;-76
2022/02/23 11:16:15;;;;;;;;;;;;;;;10.41;61.91;97421.75;5009706;28;19961;-77
2022/02/23 11:18:41;;;;;;;;;;;;;;;10.16;60.50;97405.63;5006378;28;19964;-77
2022/02/23 11:21:10;;;;;;;;;;;;;;;10.12;61.67;97420.94;5007705;28;19968;-77
2022/02/23 11:23:37;;;;;;;;;;;;;;;10.44;62.93;97428.44;5008599;28;19947;-77
2022/02/23 11:26:04;;;;;;;;;;;;;;;10.68;60.14;97395.69;5011481;28;19959;-77
2022/02/23 11:28:32;;;;;;;;;;;;;;;11.05;61.64;97410.16;5002370;28;19968;-77
2022/02/23 11:31:03;;;;;;;;;;;;;;;11.11;60.21;97388.38;5001211;28;19960;-78
2022/02/23 11:33:50;;;;;;;;;;;;;;;10.87;62.20;97405.44;5003388;28;19958;-78
2022/02/23 11:36:19;;;;;;;;;;;;;;;10.69;61.23;97405.19;5003094;28;19975;-78
2022/02/23 11:38:46;;;;;;;;;;;;;;;10.82;57.34;97342.25;5003416;28;19953;-78
2022/02/23 11:41:21;;;;;;;;;;;;;;;11.18;59.56;97364.75;5010917;28;19961;-78
2022/02/23 11:43:47;;;;;;;;;;;;;;;11.64;60.64;97377.16;4996239;28;19977;-78
2022/02/23 11:52:20;;;;;;;;;;;;;;;12.53;54.25;97293.47;5000726;28;19956;-78
2022/02/23 11:57:49;;;;;;;;;;;;;;;12.49;54.88;97298.34;5001892;28;20404;-78
2022/02/23 12:00:15;;;;;;;;;;;;;;;12.34;53.31;97271.50;5009764;28;20279;-77
2022/02/23 12:02:41;;;;;;;;;;;;;;;12.38;55.12;97301.63;4995617;28;20050;-78
2022/02/23 12:05:08;;;;;;;;;;;;;;;12.38;50.16;97243.75;5007468;28;19963;-78
2022/02/23 12:07:46;;;;;;;;;;;;;;;12.45;55.12;97298.97;5001094;28;19978;-78
2022/02/23 12:10:12;;;;;;;;;;;;;;;12.44;53.90;97276.31;5000198;28;20423;-78
2022/02/23 12:12:52;;;;;;;;;;;;;;;12.24;51.85;97256.19;5005756;28;19959;-78
2022/02/23 12:15:26;;;;;;;;;;;;;;;12.03;54.71;97296.66;5008264;28;19969;-78
2022/02/23 12:18:12;;;;;;;;;;;;;;;11.91;56.21;97306.22;5004472;28;19959;-78
2022/02/23 12:20:38;;;;;;;;;;;;;;;11.75;56.77;97302.94;4984985;28;20334;-78
2022/02/23 12:23:09;;;;;;;;;;;;;;;11.51;53.59;97272.06;4986447;28;19951;-78
2022/02/23 12:25:44;;;;;;;;;;;;;;;11.31;55.47;97298.31;5001122;28;19958;-78
2022/02/23 12:28:10;;;;;;;;;;;;;;;11.18;56.05;97283.38;5002291;28;19966;-79
2022/02/23 12:30:48;;;;;;;;;;;;;;;11.25;57.42;97307.00;5006294;28;19983;-78
2022/02/23 12:33:15;;;;;;;;;;;;;;;11.44;55.17;97269.44;4980941;28;19956;-78
2022/02/23 12:35:40;;;;;;;;;;;;;;;11.64;55.42;97268.63;4988376;28;19961;-78
2022/02/23 12:38:06;;;;;;;;;;;;;;;11.74;56.24;97272.44;5003269;28;20043;-78
2022/02/23 12:40:33;;;;;;;;;;;;;;;11.86;57.33;97282.31;5007957;28;20314;-78
2022/02/23 12:43:09;;;;;;;;;;;;;;;11.94;56.71;97266.38;5004590;28;19983;-78
2022/02/23 12:45:54;;;;;;;;;;;;;;;12.04;57.19;97266.75;4988090;28;19973;-78
2022/02/23 12:48:23;;;;;;;;;;;;;;;12.08;54.43;97235.59;5005306;28;20432;-78
2022/02/23 12:50:55;;;;;;;;;;;;;;;12.15;55.36;97252.16;5005023;28;19961;-77
2022/02/23 12:53:29;;;;;;;;;;;;;;;12.09;52.97;97222.22;5004676;28;19962;-77
2022/02/23 12:55:55;;;;;;;;;;;;;;;12.19;54.30;97238.38;4998155;28;19956;-78
2022/02/23 12:58:33;;;;;;;;;;;;;;;12.32;54.18;97229.63;5006779;28;20066;-77
2022/02/23 13:00:59;;;;;;;;;;;;;;;12.44;52.41;97203.47;5010851;28;19958;-78
2022/02/23 13:03:25;;;;;;;;;;;;;;;12.45;52.22;97199.00;4986644;28;19983;-77
2022/02/23 13:05:54;;;;;;;;;;;;;;;12.46;51.68;97187.47;5005491;28;19951;-77